Time;durP1;ratioP1;P1;durP2;ratioP2;P2;SDS_P1;SDS_P2;PMS_P1;PMS_P2;Temp;Humidity;BMP_temperature;BMP_pressure;BME280_temperature;BME280_humidity;BME280_pressure;Samples;Min_cycle;Max_cycle;Signal;HPM_P1;HPM_P2
2023/10/22 00:00:50;;;;;;;0.40;0.40;;;;;;;12.27;83.79;97456.53;4102118;28;20265;-46
2023/10/22 00:02:52;;;;;;;1.00;0.65;;;;;;;12.24;83.68;97451.59;4105484;28;20799;-47
2023/10/22 00:04:54;;;;;;;0.77;0.50;;;;;;;12.21;84.03;97454.09;4120247;28;20346;-45
2023/10/22 00:06:56;;;;;;;0.50;0.50;;;;;;;12.22;84.44;97459.28;4102845;28;20215;-48
2023/10/22 00:08:57;;;;;;;0.80;0.80;;;;;;;12.18;84.27;97457.41;4109751;28;20580;-49
2023/10/22 00:10:59;;;;;;;0.43;0.43;;;;;;;12.19;84.18;97459.06;4105440;28;20215;-46
2023/10/22 00:13:01;;;;;;;0.47;0.47;;;;;;;12.17;84.39;97451.09;4106248;28;20263;-46
2023/10/22 00:15:03;;;;;;;0.43;0.43;;;;;;;12.16;84.75;97460.44;4102879;28;20219;-47
2023/10/22 00:17:05;;;;;;;3.22;0.63;;;;;;;12.18;84.70;97458.22;4089548;28;20215;-48
2023/10/22 00:19:06;;;;;;;0.50;0.50;;;;;;;12.22;84.49;97458.47;4102019;28;20223;-46
2023/10/22 00:21:08;;;;;;;0.47;0.47;;;;;;;12.18;84.46;97463.69;4134145;28;20210;-46
2023/10/22 00:23:10;;;;;;;1.05;1.05;;;;;;;12.24;84.28;97462.56;4120373;28;20202;-46
2023/10/22 00:25:12;;;;;;;3.50;0.90;;;;;;;12.17;84.65;97462.06;4103236;28;20215;-45
2023/10/22 00:27:14;;;;;;;1.17;0.60;;;;;;;12.19;84.70;97464.53;4135755;28;20268;-46
2023/10/22 00:29:16;;;;;;;0.50;0.50;;;;;;;12.15;84.72;97468.94;4103013;28;20309;-47
2023/10/22 00:31:18;;;;;;;0.40;0.40;;;;;;;12.15;84.78;97467.03;4122060;28;20254;-47
2023/10/22 00:33:19;;;;;;;4.47;1.38;;;;;;;12.14;84.62;97473.63;4104254;28;20230;-46
2023/10/22 00:35:22;;;;;;;6.75;0.68;;;;;;;12.12;84.95;97475.00;4137920;28;20296;-46
2023/10/22 00:37:26;;;;;;;0.57;0.52;;;;;;;12.12;84.83;97461.31;4119393;28;20217;-46
2023/10/22 00:39:29;;;;;;;1.02;1.02;;;;;;;12.09;85.36;97464.59;4120580;28;20664;-46
2023/10/22 00:41:30;;;;;;;1.15;1.15;;;;;;;12.04;85.48;97467.41;4121229;28;20577;-47
2023/10/22 00:43:37;;;;;;;0.85;0.85;;;;;;;12.03;85.69;97472.06;4119606;28;20258;-46
2023/10/22 00:45:39;;;;;;;0.40;0.40;;;;;;;12.05;85.92;97471.78;4119232;28;20211;-46
2023/10/22 00:47:41;;;;;;;0.45;0.45;;;;;;;11.94;86.55;97468.28;4103410;28;20211;-46
2023/10/22 00:49:43;;;;;;;0.47;0.47;;;;;;;11.96;86.47;97476.22;4104441;28;20207;-46
2023/10/22 00:51:50;;;;;;;0.40;0.40;;;;;;;11.96;86.38;97477.03;4120594;28;20677;-46
2023/10/22 00:53:52;;;;;;;1.00;0.65;;;;;;;11.99;86.15;97471.00;4119278;28;20326;-47
2023/10/22 00:55:53;;;;;;;1.70;0.77;;;;;;;11.97;86.34;97470.44;4099360;28;20211;-47
2023/10/22 00:57:56;;;;;;;0.60;0.60;;;;;;;11.93;86.50;97472.13;4107089;28;20211;-47
2023/10/22 00:59:58;;;;;;;1.05;0.77;;;;;;;11.91;86.76;97474.31;4133279;28;20854;-46
2023/10/22 01:02:00;;;;;;;1.00;1.00;;;;;;;11.84;87.68;97473.81;4134265;28;20209;-46
2023/10/22 01:04:03;;;;;;;5.28;0.80;;;;;;;11.82;88.01;97476.03;4099449;28;20326;-46
2023/10/22 01:06:06;;;;;;;0.95;0.60;;;;;;;11.87;87.52;97478.75;4134676;28;20776;-47
2023/10/22 01:08:09;;;;;;;0.60;0.60;;;;;;;11.84;88.54;97482.03;4117577;28;20210;-46
2023/10/22 01:10:11;;;;;;;1.85;1.00;;;;;;;11.80;88.46;97483.72;4118725;28;22130;-47
2023/10/22 01:12:12;;;;;;;0.50;0.50;;;;;;;11.84;88.06;97490.25;4119180;28;20739;-46
2023/10/22 01:14:14;;;;;;;2.10;1.20;;;;;;;11.84;88.60;97484.78;4118132;28;20337;-47
2023/10/22 01:16:16;;;;;;;2.42;1.17;;;;;;;11.85;88.33;97491.09;4119895;28;20252;-47
2023/10/22 01:18:18;;;;;;;0.40;0.40;;;;;;;11.83;88.48;97498.78;4103084;28;20293;-45
2023/10/22 01:20:20;;;;;;;1.17;0.80;;;;;;;11.81;89.13;97485.34;4104679;28;20231;-47
2023/10/22 01:22:21;;;;;;;0.50;0.50;;;;;;;11.79;88.99;97482.09;4134780;28;20240;-46
2023/10/22 01:24:24;;;;;;;0.90;0.90;;;;;;;11.79;89.21;97482.09;4104571;28;20234;-46
2023/10/22 01:26:29;;;;;;;0.63;0.63;;;;;;;11.77;89.61;97495.22;4108562;28;20211;-46
2023/10/22 01:28:31;;;;;;;1.65;1.55;;;;;;;11.77;89.86;97487.00;4118839;28;20214;-47
2023/10/22 01:30:33;;;;;;;0.68;0.68;;;;;;;11.72;90.20;97492.50;4134326;28;20201;-47
2023/10/22 01:32:38;;;;;;;1.75;1.08;;;;;;;11.69;90.33;97489.53;4089583;28;20566;-47
2023/10/22 01:34:40;;;;;;;0.57;0.57;;;;;;;11.69;90.91;97486.78;4099702;28;20230;-47
2023/10/22 01:36:41;;;;;;;1.17;1.05;;;;;;;11.64;90.92;97498.59;4104507;28;20591;-47
2023/10/22 01:38:43;;;;;;;0.80;0.80;;;;;;;11.64;91.40;97495.84;4103251;28;20762;-48
2023/10/22 01:40:45;;;;;;;0.60;0.60;;;;;;;11.66;91.20;97488.19;4134729;28;22615;-46
2023/10/22 01:42:47;;;;;;;1.45;0.80;;;;;;;11.68;91.51;97487.88;4102664;28;20215;-46
2023/10/22 01:44:48;;;;;;;3.38;1.00;;;;;;;11.57;91.93;97489.81;4117371;28;20230;-48
2023/10/22 01:46:50;;;;;;;1.42;0.52;;;;;;;11.62;91.68;97494.50;4135215;28;20214;-46
2023/10/22 01:48:52;;;;;;;4.85;0.90;;;;;;;11.58;92.07;97501.66;4120283;28;20214;-48
2023/10/22 01:50:54;;;;;;;1.90;0.50;;;;;;;11.54;92.37;97498.63;4116563;28;20219;-46
2023/10/22 01:52:56;;;;;;;0.60;0.52;;;;;;;11.56;92.28;97509.31;4106835;28;20716;-45
2023/10/22 01:54:58;;;;;;;0.40;0.40;;;;;;;11.53;92.64;97504.38;4120018;28;20633;-46
2023/10/22 01:56:59;;;;;;;0.82;0.75;;;;;;;11.54;92.71;97501.38;4116765;28;21067;-46
2023/10/22 01:59:01;;;;;;;0.70;0.70;;;;;;;11.53;93.09;97509.84;4102064;28;20218;-47
2023/10/22 02:01:03;;;;;;;0.50;0.50;;;;;;;11.49;93.02;97497.81;4104277;28;20257;-47
2023/10/22 02:03:05;;;;;;;0.60;0.60;;;;;;;11.50;93.02;97500.28;4100556;28;20245;-46
2023/10/22 02:05:07;;;;;;;0.50;0.50;;;;;;;11.50;93.18;97500.28;4102347;28;20215;-46
2023/10/22 02:07:09;;;;;;;0.77;0.70;;;;;;;11.46;93.42;97504.69;4133652;28;20210;-45
2023/10/22 02:09:11;;;;;;;0.70;0.70;;;;;;;11.43;94.14;97494.28;4085576;28;20276;-47
2023/10/22 02:11:13;;;;;;;2.05;1.35;;;;;;;11.37;94.26;97500.06;4118742;28;20210;-48
2023/10/22 02:13:16;;;;;;;0.80;0.80;;;;;;;11.38;94.35;97505.25;4088728;28;20282;-47
2023/10/22 02:15:19;;;;;;;3.78;0.90;;;;;;;11.40;94.52;97504.97;4101939;28;20214;-46
2023/10/22 02:17:26;;;;;;;0.75;0.75;;;;;;;11.34;94.58;97501.44;4102024;28;20254;-45
2023/10/22 02:19:27;;;;;;;5.88;1.05;;;;;;;11.34;94.95;97501.44;4140783;28;20213;-46
2023/10/22 02:21:29;;;;;;;9.43;0.90;;;;;;;11.34;94.70;97493.22;4121566;28;21029;-45
2023/10/22 02:23:31;;;;;;;1.38;0.93;;;;;;;11.34;95.49;97497.88;4117980;28;20784;-46
2023/10/22 02:25:32;;;;;;;2.15;1.00;;;;;;;11.34;95.09;97493.22;4100105;28;20207;-47
2023/10/22 02:27:35;;;;;;;1.15;0.98;;;;;;;11.30;95.45;97500.34;4134063;28;20269;-45
2023/10/22 02:29:36;;;;;;;1.77;1.02;;;;;;;11.33;95.08;97505.28;4102628;28;20680;-46
2023/10/22 02:31:38;;;;;;;4.35;0.90;;;;;;;11.36;95.67;97499.25;4134609;28;20321;-46
2023/10/22 02:33:40;;;;;;;0.88;0.70;;;;;;;11.30;95.96;97503.09;4100026;28;20231;-47
2023/10/22 02:35:43;;;;;;;0.60;0.60;;;;;;;11.26;96.02;97501.19;4103632;28;20243;-46
2023/10/22 02:37:47;;;;;;;0.50;0.50;;;;;;;11.27;95.86;97505.56;4100296;28;20221;-46
2023/10/22 02:39:49;;;;;;;0.65;0.65;;;;;;;11.29;96.14;97506.94;4101438;28;20214;-46
2023/10/22 02:41:52;;;;;;;0.90;0.90;;;;;;;11.32;96.12;97506.38;4134810;28;20209;-47
2023/10/22 02:43:55;;;;;;;0.70;0.70;;;;;;;11.34;96.03;97506.09;4104573;28;20760;-46
2023/10/22 02:45:57;;;;;;;1.65;0.88;;;;;;;11.30;96.27;97502.28;4102052;28;20296;-48
2023/10/22 02:47:59;;;;;;;1.25;0.68;;;;;;;11.34;96.15;97495.13;4102847;28;20732;-47
2023/10/22 02:50:01;;;;;;;1.17;0.70;;;;;;;11.38;95.68;97508.00;4099041;28;20230;-46
2023/10/22 02:52:03;;;;;;;0.75;0.75;;;;;;;11.34;96.07;97506.91;4101872;28;20609;-48
2023/10/22 02:54:05;;;;;;;0.57;0.57;;;;;;;11.36;96.25;97521.16;4087827;28;20246;-48
2023/10/22 02:56:09;;;;;;;1.20;0.90;;;;;;;11.35;96.31;97511.28;4100354;28;20214;-47
2023/10/22 02:58:11;;;;;;;0.80;0.80;;;;;;;11.32;96.72;97514.56;4135092;28;20240;-46
2023/10/22 03:00:13;;;;;;;1.15;0.82;;;;;;;11.30;96.76;97511.31;4100308;28;20234;-46
2023/10/22 03:02:34;;;;;;;0.50;0.50;;;;;;;11.31;96.82;97518.41;4103359;28;20971;-46
2023/10/22 03:04:36;;;;;;;2.08;0.70;;;;;;;11.40;96.00;97516.75;4098976;28;20238;-48
2023/10/22 03:06:39;;;;;;;0.60;0.60;;;;;;;11.34;96.61;97512.41;4100972;28;20215;-46
2023/10/22 03:08:41;;;;;;;0.60;0.57;;;;;;;11.38;96.72;97518.13;4099916;28;20211;-48
2023/10/22 03:10:43;;;;;;;1.10;0.63;;;;;;;11.34;96.83;97515.13;4104606;28;20220;-48
2023/10/22 03:12:45;;;;;;;0.82;0.82;;;;;;;11.31;97.08;97501.19;4135051;28;20261;-47
2023/10/22 03:14:50;;;;;;;0.60;0.60;;;;;;;11.27;98.12;97522.00;4103606;28;20241;-46
2023/10/22 03:16:56;;;;;;;8.45;1.08;;;;;;;11.20;98.37;97522.31;4100065;28;20237;-46
2023/10/22 03:18:58;;;;;;;0.93;0.93;;;;;;;11.18;98.71;97524.47;4130192;28;20236;-47
2023/10/22 03:21:00;;;;;;;0.60;0.60;;;;;;;11.16;98.93;97532.16;4115874;28;20249;-47
2023/10/22 03:23:03;;;;;;;2.03;1.05;;;;;;;11.20;98.71;97526.94;4117354;28;20302;-46
2023/10/22 03:25:07;;;;;;;0.70;0.70;;;;;;;11.13;99.75;97532.72;4134815;28;20292;-45
2023/10/22 03:27:10;;;;;;;0.60;0.60;;;;;;;11.17;99.16;97538.47;4117525;28;20325;-48
2023/10/22 03:29:12;;;;;;;1.02;0.95;;;;;;;11.16;99.24;97537.63;4101546;28;20233;-46
2023/10/22 03:31:18;;;;;;;0.60;0.60;;;;;;;11.17;99.67;97550.22;4102612;28;20281;-47
2023/10/22 03:33:20;;;;;;;2.95;1.60;;;;;;;11.20;99.38;97544.22;4117660;28;20321;-46
2023/10/22 03:35:22;;;;;;;5.03;0.68;;;;;;;11.16;99.65;97539.53;4116251;28;20209;-45
2023/10/22 03:37:24;;;;;;;1.08;1.08;;;;;;;11.16;99.93;97543.13;4107706;28;20255;-46
2023/10/22 03:39:25;;;;;;;0.68;0.68;;;;;;;11.13;100.00;97543.69;4120770;28;20219;-46
2023/10/22 03:41:27;;;;;;;0.60;0.60;;;;;;;11.11;100.00;97548.59;4134408;28;20263;-47
2023/10/22 03:43:30;;;;;;;1.20;0.63;;;;;;;11.13;100.00;97546.44;4104611;28;20234;-47
2023/10/22 03:45:32;;;;;;;0.68;0.68;;;;;;;11.14;100.00;97547.22;4121879;28;20213;-50
2023/10/22 03:47:33;;;;;;;1.25;1.00;;;;;;;11.19;100.00;97553.53;4122494;28;20612;-46
2023/10/22 03:49:35;;;;;;;7.57;0.85;;;;;;;11.16;100.00;97559.53;4107144;28;20647;-47
2023/10/22 03:51:40;;;;;;;0.68;0.68;;;;;;;11.17;100.00;97561.19;4106568;28;20204;-47
2023/10/22 03:53:45;;;;;;;0.80;0.80;;;;;;;11.21;100.00;97556.81;4107189;28;20281;-46
2023/10/22 03:55:47;;;;;;;0.95;0.95;;;;;;;11.19;100.00;97567.22;4120294;28;20210;-47
2023/10/22 03:57:49;;;;;;;8.05;1.63;;;;;;;11.20;100.00;97570.75;4120782;28;20218;-47
2023/10/22 03:59:51;;;;;;;0.65;0.65;;;;;;;11.18;100.00;97568.28;4122410;28;20699;-48
2023/10/22 04:01:55;;;;;;;0.88;0.88;;;;;;;11.14;100.00;97578.19;4119894;28;20226;-46
2023/10/22 04:03:57;;;;;;;8.77;0.88;;;;;;;11.13;100.00;97582.00;4105025;28;20277;-47
2023/10/22 04:05:59;;;;;;;0.80;0.80;;;;;;;11.17;100.00;97577.59;4121345;28;20199;-47
2023/10/22 04:08:01;;;;;;;2.15;0.90;;;;;;;11.13;100.00;97587.50;4138752;28;20213;-47
2023/10/22 04:10:09;;;;;;;0.85;0.75;;;;;;;11.13;100.00;97579.28;4104747;28;20207;-45
2023/10/22 04:12:11;;;;;;;0.57;0.57;;;;;;;11.12;100.00;97591.31;4102133;28;20257;-48
2023/10/22 04:14:13;;;;;;;2.15;1.38;;;;;;;11.11;100.00;97584.19;4092577;28;20231;-47
2023/10/22 04:16:15;;;;;;;1.13;1.05;;;;;;;11.08;100.00;97590.22;4109453;28;20226;-46
2023/10/22 04:18:19;;;;;;;2.95;0.85;;;;;;;11.09;100.00;97591.03;4119571;28;20297;-48
2023/10/22 04:20:21;;;;;;;2.83;0.55;;;;;;;11.09;100.00;97600.06;4120840;28;20249;-48
2023/10/22 04:22:23;;;;;;;1.08;0.85;;;;;;;11.11;100.00;97614.31;4106238;28;20203;-46
2023/10/22 04:24:24;;;;;;;0.93;0.93;;;;;;;11.07;100.00;97609.66;4104698;28;20696;-45
2023/10/22 04:26:32;;;;;;;1.17;1.17;;;;;;;11.08;100.00;97620.34;4104632;28;20203;-47
2023/10/22 04:28:33;;;;;;;2.05;0.70;;;;;;;11.06;100.00;97616.22;4105346;28;20218;-49
2023/10/22 04:30:39;;;;;;;0.73;0.73;;;;;;;11.04;100.00;97621.97;4136745;28;20205;-45
2023/10/22 04:32:41;;;;;;;0.77;0.77;;;;;;;11.06;100.00;97619.81;4118453;28;20309;-46
2023/10/22 04:34:43;;;;;;;0.68;0.68;;;;;;;11.10;100.00;97620.06;4119306;28;20230;-45
2023/10/22 04:36:45;;;;;;;1.80;1.17;;;;;;;11.06;100.00;97632.66;4118398;28;20206;-46
2023/10/22 04:38:50;;;;;;;1.73;0.73;;;;;;;11.08;100.00;97623.09;4120308;28;20219;-45
2023/10/22 04:40:51;;;;;;;0.90;0.68;;;;;;;10.99;100.00;97640.34;4137403;28;20229;-46
2023/10/22 04:42:57;;;;;;;1.00;1.00;;;;;;;11.05;100.00;97629.09;4103932;28;20217;-47
2023/10/22 04:44:58;;;;;;;0.60;0.60;;;;;;;10.99;100.00;97634.84;4104493;28;20206;-47
2023/10/22 04:47:00;;;;;;;2.05;1.83;;;;;;;10.98;100.00;97628.53;4103291;28;20680;-46
2023/10/22 04:49:02;;;;;;;2.95;0.80;;;;;;;10.98;100.00;97623.06;4104131;28;20677;-47
2023/10/22 04:51:06;;;;;;;1.45;0.90;;;;;;;10.97;100.00;97620.63;4103545;28;20210;-46
2023/10/22 04:53:07;;;;;;;0.73;0.73;;;;;;;10.92;100.00;97632.38;4120310;28;20240;-47
2023/10/22 04:55:16;;;;;;;5.13;0.90;;;;;;;10.94;100.00;97632.94;4119403;28;20209;-46
2023/10/22 04:57:18;;;;;;;5.18;1.13;;;;;;;10.96;100.00;97647.16;4120610;28;20611;-47
2023/10/22 04:59:20;;;;;;;1.45;1.25;;;;;;;10.96;100.00;97641.69;4121625;28;20213;-46
2023/10/22 05:01:22;;;;;;;0.90;0.90;;;;;;;10.93;100.00;97647.72;4122410;28;20732;-47
2023/10/22 05:03:24;;;;;;;2.60;0.77;;;;;;;10.91;100.00;97652.63;4107000;28;20241;-48
2023/10/22 05:05:29;;;;;;;1.75;1.15;;;;;;;10.92;100.00;97654.28;4136432;28;20220;-48
2023/10/22 05:07:30;;;;;;;1.00;0.95;;;;;;;10.96;100.00;97652.66;4117192;28;20225;-45
2023/10/22 05:09:33;;;;;;;4.95;1.77;;;;;;;10.94;100.00;97645.78;4117577;28;20615;-45
2023/10/22 05:11:35;;;;;;;1.02;0.93;;;;;;;10.97;100.00;97653.47;4118599;28;20203;-45
2023/10/22 05:13:37;;;;;;;5.88;1.92;;;;;;;11.01;100.00;97644.44;4118338;28;20230;-47
2023/10/22 05:15:38;;;;;;;5.40;1.55;;;;;;;10.99;100.00;97649.38;4134815;28;21095;-47
2023/10/22 05:17:40;;;;;;;1.85;1.20;;;;;;;11.03;100.00;97658.66;4137404;28;20214;-46
2023/10/22 05:19:43;;;;;;;1.23;0.68;;;;;;;10.99;100.00;97654.84;4103403;28;20258;-47
2023/10/22 05:21:44;;;;;;;1.38;0.75;;;;;;;10.97;100.00;97659.75;4100606;28;20918;-46
2023/10/22 05:23:46;;;;;;;3.55;1.42;;;;;;;10.95;100.00;97661.97;4136778;28;20248;-46
2023/10/22 05:25:48;;;;;;;1.30;1.20;;;;;;;10.96;100.00;97660.03;4121630;28;20266;-46
2023/10/22 05:27:50;;;;;;;0.70;0.70;;;;;;;10.85;100.00;97656.47;4104636;28;20223;-46
2023/10/22 05:29:53;;;;;;;0.85;0.85;;;;;;;10.89;100.00;97656.72;4120150;28;20214;-46
2023/10/22 05:31:57;;;;;;;0.70;0.70;;;;;;;10.87;100.00;97663.59;4119669;28;20217;-46
2023/10/22 05:33:59;;;;;;;2.75;1.83;;;;;;;10.87;100.00;97671.81;4134891;28;20324;-46
2023/10/22 05:36:03;;;;;;;3.35;1.27;;;;;;;10.87;100.00;97669.88;4101778;28;20210;-46
2023/10/22 05:38:05;;;;;;;3.45;0.90;;;;;;;10.83;100.00;97666.88;4118538;28;20210;-48
2023/10/22 05:40:09;;;;;;;5.25;0.63;;;;;;;10.81;100.00;97670.16;4119635;28;20221;-46
2023/10/22 05:42:11;;;;;;;2.08;0.70;;;;;;;10.78;100.00;97677.81;4118642;28;20317;-47
2023/10/22 05:44:13;;;;;;;1.00;0.95;;;;;;;10.84;100.00;97679.44;4102663;28;20231;-45
2023/10/22 05:46:14;;;;;;;5.47;0.90;;;;;;;10.79;100.00;97678.63;4103626;28;20237;-46
2023/10/22 05:48:16;;;;;;;0.90;0.57;;;;;;;10.80;100.00;97680.28;4136916;28;20300;-46
2023/10/22 05:50:18;;;;;;;1.05;0.70;;;;;;;10.83;100.00;97688.75;4119492;28;21053;-46
2023/10/22 05:52:19;;;;;;;0.60;0.60;;;;;;;10.79;100.00;97690.38;4120441;28;20202;-47
2023/10/22 05:54:21;;;;;;;0.75;0.75;;;;;;;10.82;100.00;97690.97;4102751;28;20231;-46
2023/10/22 05:56:24;;;;;;;6.93;1.20;;;;;;;10.81;100.00;97695.59;4119771;28;20644;-49
2023/10/22 05:58:26;;;;;;;0.80;0.75;;;;;;;10.84;100.00;97704.09;4116746;28;20210;-47
2023/10/22 06:00:28;;;;;;;0.63;0.63;;;;;;;10.79;100.00;97709.53;4103077;28;20245;-46
2023/10/22 06:02:30;;;;;;;0.70;0.70;;;;;;;10.85;100.00;97697.50;4121663;28;20901;-47
2023/10/22 06:04:32;;;;;;;5.50;1.17;;;;;;;10.91;100.00;97701.09;4104094;28;20246;-46
2023/10/22 06:06:33;;;;;;;1.02;0.90;;;;;;;10.94;100.00;97700.53;4117753;28;20210;-46
2023/10/22 06:08:35;;;;;;;0.68;0.68;;;;;;;10.82;100.00;97711.75;4118852;28;20213;-46
2023/10/22 06:10:44;;;;;;;1.42;0.90;;;;;;;10.88;100.00;97714.50;4117692;28;20210;-46
2023/10/22 06:12:49;;;;;;;0.55;0.55;;;;;;;10.89;100.00;97715.03;4120509;28;20205;-46
2023/10/22 06:14:50;;;;;;;0.60;0.60;;;;;;;10.95;100.00;97713.97;4118470;28;20230;-46
2023/10/22 06:16:52;;;;;;;0.70;0.70;;;;;;;10.99;100.00;97717.81;4103862;28;21060;-46
2023/10/22 06:18:54;;;;;;;1.05;1.05;;;;;;;11.00;100.00;97718.63;4102873;28;20230;-44
2023/10/22 06:20:55;;;;;;;0.70;0.70;;;;;;;11.00;100.00;97724.94;4096680;28;20221;-48
2023/10/22 06:22:57;;;;;;;0.73;0.73;;;;;;;10.94;100.00;97726.00;4104799;28;20305;-45
2023/10/22 06:24:59;;;;;;;1.38;0.73;;;;;;;11.03;100.00;97737.25;4103714;28;20272;-48
2023/10/22 06:27:01;;;;;;;0.93;0.93;;;;;;;11.04;100.00;97742.44;4118980;28;20261;-45
2023/10/22 06:29:03;;;;;;;0.60;0.60;;;;;;;11.07;100.00;97741.06;4089500;28;20213;-46
2023/10/22 06:31:08;;;;;;;6.20;1.42;;;;;;;11.07;100.00;97746.53;4117286;28;20701;-46
2023/10/22 06:33:10;;;;;;;0.55;0.55;;;;;;;11.12;100.00;97749.28;4116419;28;20629;-46
2023/10/22 06:35:12;;;;;;;0.55;0.55;;;;;;;11.09;100.00;97750.66;4116729;28;20218;-45
2023/10/22 06:37:14;;;;;;;1.48;0.95;;;;;;;11.13;100.00;97754.50;4084694;28;20215;-47
2023/10/22 06:39:15;;;;;;;0.40;0.40;;;;;;;11.21;100.00;97756.69;4101184;28;20253;-45
2023/10/22 06:41:20;;;;;;;0.68;0.68;;;;;;;11.19;100.00;97758.91;4101304;28;20234;-45
2023/10/22 06:43:21;;;;;;;0.70;0.70;;;;;;;11.21;100.00;97764.09;4102511;28;20222;-47
2023/10/22 06:45:23;;;;;;;5.53;0.70;;;;;;;11.20;100.00;97767.91;4133633;28;20277;-46
2023/10/22 06:47:25;;;;;;;5.72;1.55;;;;;;;11.21;100.00;97775.88;4085111;28;20689;-46
2023/10/22 06:49:31;;;;;;;5.10;1.27;;;;;;;11.24;100.00;97783.53;4102811;28;20318;-46
2023/10/22 06:51:33;;;;;;;0.60;0.60;;;;;;;11.23;100.00;97784.63;4100704;28;20688;-46
2023/10/22 06:53:38;;;;;;;1.52;0.90;;;;;;;11.24;100.00;97786.28;4117359;28;20237;-46
2023/10/22 06:55:42;;;;;;;0.80;0.80;;;;;;;11.28;100.00;97781.91;4115863;28;20210;-46
2023/10/22 06:57:46;;;;;;;1.90;1.80;;;;;;;11.26;100.00;97789.56;4120448;28;20210;-47
2023/10/22 06:59:51;;;;;;;3.50;0.70;;;;;;;11.25;100.00;97796.13;4117967;28;20639;-45
2023/10/22 07:01:53;;;;;;;3.13;1.17;;;;;;;11.27;100.00;97796.69;4130444;28;20214;-47
2023/10/22 07:03:55;;;;;;;0.73;0.73;;;;;;;11.26;100.00;97795.06;4116021;28;20234;-47
2023/10/22 07:05:57;;;;;;;1.17;1.08;;;;;;;11.28;100.00;97795.59;4103731;28;20211;-47
2023/10/22 07:07:59;;;;;;;1.35;1.35;;;;;;;11.29;100.00;97799.97;4104197;28;20285;-46
2023/10/22 07:10:01;;;;;;;0.93;0.93;;;;;;;11.34;100.00;97807.38;4115192;28;20207;-48
2023/10/22 07:12:03;;;;;;;0.60;0.60;;;;;;;11.41;100.00;97803.28;4115888;28;20203;-46
2023/10/22 07:14:05;;;;;;;1.88;0.80;;;;;;;11.42;100.00;97804.91;4134939;28;20560;-46
2023/10/22 07:16:07;;;;;;;2.33;0.77;;;;;;;11.41;100.00;97803.28;4118833;28;20638;-47
2023/10/22 07:18:09;;;;;;;1.15;1.15;;;;;;;11.46;100.00;97806.03;4099559;28;20237;-45
2023/10/22 07:20:12;;;;;;;2.33;1.20;;;;;;;11.40;100.00;97814.50;4134291;28;20217;-49
2023/10/22 07:22:17;;;;;;;1.60;1.50;;;;;;;11.38;100.00;97808.47;4100440;28;20218;-45
2023/10/22 07:24:18;;;;;;;1.15;1.05;;;;;;;11.39;100.00;97816.44;4099722;28;20236;-45
2023/10/22 07:26:20;;;;;;;1.15;0.90;;;;;;;11.43;100.00;97811.22;4103445;28;20318;-49
2023/10/22 07:28:22;;;;;;;0.68;0.50;;;;;;;11.49;100.00;97810.94;4103841;28;20616;-46
2023/10/22 07:30:23;;;;;;;1.13;1.10;;;;;;;11.47;100.00;97807.66;4104872;28;20207;-47
2023/10/22 07:32:26;;;;;;;0.60;0.60;;;;;;;11.47;100.00;97806.84;4103692;28;20207;-47
2023/10/22 07:34:30;;;;;;;1.10;0.80;;;;;;;11.54;100.00;97812.88;4100276;28;20231;-47
2023/10/22 07:36:32;;;;;;;0.80;0.80;;;;;;;11.49;100.00;97805.47;4117873;28;20669;-45
2023/10/22 07:38:33;;;;;;;1.23;1.20;;;;;;;11.51;100.00;97811.50;4133234;28;20703;-48
2023/10/22 07:40:36;;;;;;;0.77;0.77;;;;;;;11.51;100.00;97810.69;4117930;28;20216;-47
2023/10/22 07:42:38;;;;;;;2.47;0.77;;;;;;;11.55;100.00;97809.84;4117258;28;20231;-45
2023/10/22 07:44:44;;;;;;;1.98;0.98;;;;;;;11.56;100.00;97827.94;4101129;28;20744;-45
2023/10/22 07:46:46;;;;;;;3.92;0.70;;;;;;;11.55;100.00;97818.09;4102360;28;20250;-44
2023/10/22 07:48:47;;;;;;;1.08;0.70;;;;;;;11.64;100.00;97824.69;4100569;28;20997;-47
2023/10/22 07:50:49;;;;;;;0.88;0.77;;;;;;;11.64;100.00;97826.63;4102660;28;20235;-46
2023/10/22 07:52:51;;;;;;;1.48;1.20;;;;;;;11.61;100.00;97827.97;4105765;28;20230;-45
2023/10/22 07:54:53;;;;;;;1.75;1.65;;;;;;;11.66;100.00;97838.97;4102336;28;20641;-45
2023/10/22 07:56:54;;;;;;;4.18;1.33;;;;;;;11.63;100.00;97839.47;4106322;28;20678;-45
2023/10/22 07:58:56;;;;;;;1.02;0.75;;;;;;;11.66;100.00;97829.91;4102926;28;20206;-45
2023/10/22 08:00:59;;;;;;;21.08;2.53;;;;;;;11.64;100.00;97832.91;4116319;28;20210;-45
2023/10/22 08:03:01;;;;;;;2.40;1.08;;;;;;;11.68;100.00;97842.22;4119772;28;20249;-45
2023/10/22 08:05:03;;;;;;;7.65;0.98;;;;;;;11.74;100.00;97852.09;4115224;28;22600;-45
2023/10/22 08:07:05;;;;;;;2.65;1.17;;;;;;;11.73;100.00;97850.47;4117125;28;20210;-45
2023/10/22 08:09:07;;;;;;;4.55;0.90;;;;;;;11.70;100.00;97851.00;4117574;28;20273;-46
2023/10/22 08:11:09;;;;;;;1.75;0.60;;;;;;;11.82;100.00;97851.56;4133616;28;20708;-45
2023/10/22 08:13:13;;;;;;;1.05;0.80;;;;;;;11.94;100.00;97857.59;4115650;28;20206;-47
2023/10/22 08:15:15;;;;;;;2.10;1.15;;;;;;;11.89;100.00;97857.59;4104910;28;20213;-46
2023/10/22 08:17:16;;;;;;;2.33;1.83;;;;;;;11.88;100.00;97852.38;4101159;28;20636;-47
2023/10/22 08:19:18;;;;;;;1.48;0.88;;;;;;;11.88;100.00;97858.69;4114642;28;20225;-47
2023/10/22 08:21:21;;;;;;;5.05;1.05;;;;;;;11.90;100.00;97856.47;4115835;28;20274;-47
2023/10/22 08:23:23;;;;;;;3.80;1.40;;;;;;;11.99;100.00;97854.84;4102302;28;20230;-48
2023/10/22 08:25:25;;;;;;;2.40;1.30;;;;;;;12.38;99.69;97850.38;4121167;28;20726;-48
2023/10/22 08:27:27;;;;;;;0.52;0.50;;;;;;;12.45;98.13;97861.88;4136725;28;20210;-47
2023/10/22 08:29:28;;;;;;;1.48;1.38;;;;;;;12.59;97.47;97865.72;4104574;28;20221;-47
2023/10/22 08:31:30;;;;;;;4.70;0.90;;;;;;;12.61;96.64;97852.53;4117691;28;20249;-45
2023/10/22 08:33:32;;;;;;;1.30;1.05;;;;;;;12.80;95.08;97856.31;4101517;28;20265;-45
2023/10/22 08:35:34;;;;;;;1.33;1.33;;;;;;;13.07;93.27;97862.28;4119777;28;20620;-45
2023/10/22 08:37:35;;;;;;;0.68;0.68;;;;;;;13.64;91.01;97865.22;4120422;28;20214;-46
2023/10/22 08:39:41;;;;;;;9.57;0.98;;;;;;;13.72;90.17;97864.63;4106350;28;20293;-48
2023/10/22 08:41:55;;;;;;;1.05;1.00;;;;;;;14.11;88.10;97879.16;4102663;28;20220;-45
2023/10/22 08:43:58;;;;;;;3.45;1.08;;;;;;;13.92;87.84;97877.41;4106827;28;20323;-45
2023/10/22 08:46:00;;;;;;;1.10;1.00;;;;;;;14.13;86.56;97876.13;4118105;28;20214;-46
2023/10/22 08:48:05;;;;;;;1.75;0.95;;;;;;;14.18;85.39;97885.19;4100281;28;20215;-46
2023/10/22 08:50:10;;;;;;;0.73;0.63;;;;;;;14.44;85.70;97878.34;4119176;28;20969;-46
2023/10/22 08:52:12;;;;;;;1.13;0.77;;;;;;;14.29;85.43;97881.25;4116702;28;20218;-46
2023/10/22 08:54:16;;;;;;;2.13;1.02;;;;;;;14.00;85.05;97888.63;4118274;28;20277;-47
2023/10/22 08:56:18;;;;;;;2.15;0.90;;;;;;;13.78;86.97;97888.22;4138170;28;20210;-45
2023/10/22 08:58:20;;;;;;;2.72;1.33;;;;;;;13.47;88.42;97889.53;4088930;28;20219;-46
2023/10/22 09:00:23;;;;;;;14.48;2.17;;;;;;;13.16;90.72;97893.53;4119608;28;20277;-47
2023/10/22 09:02:28;;;;;;;1.92;1.83;;;;;;;13.14;90.93;97893.00;4116753;28;20233;-46
2023/10/22 09:04:33;;;;;;;2.83;1.40;;;;;;;13.21;90.52;97890.78;4137112;28;20229;-45
2023/10/22 09:06:34;;;;;;;1.80;1.42;;;;;;;13.35;90.58;97902.78;4103335;28;20215;-45
2023/10/22 09:08:45;;;;;;;1.50;1.33;;;;;;;13.32;90.78;97899.78;4101275;28;20241;-45
2023/10/22 09:10:48;;;;;;;4.72;0.90;;;;;;;13.34;90.67;97905.81;4120689;28;20826;-46
2023/10/22 09:12:49;;;;;;;0.88;0.73;;;;;;;13.42;91.51;97908.81;4119221;28;20206;-47
2023/10/22 09:14:56;;;;;;;2.28;0.90;;;;;;;13.77;89.77;97894.81;4116986;28;20324;-46
2023/10/22 09:17:14;;;;;;;1.23;0.65;;;;;;;14.33;87.71;97898.00;4104235;28;20783;-45
2023/10/22 09:19:37;;;;;;;4.07;0.90;;;;;;;14.61;84.46;97900.75;4119666;28;20715;-46
2023/10/22 09:21:45;;;;;;;0.75;0.68;;;;;;;14.93;83.48;97905.63;4103954;28;20219;-46
2023/10/22 09:24:04;;;;;;;1.90;1.65;;;;;;;15.31;82.19;97902.69;4117063;28;20771;-46
2023/10/22 09:26:07;;;;;;;7.22;1.40;;;;;;;14.90;80.82;97898.78;4119690;28;20214;-45
2023/10/22 09:28:25;;;;;;;0.60;0.60;;;;;;;14.40;82.17;97907.56;4118964;28;20292;-46
2023/10/22 09:30:30;;;;;;;0.63;0.63;;;;;;;14.17;83.26;97911.03;4106353;28;20298;-46
2023/10/22 09:32:32;;;;;;;1.10;0.70;;;;;;;14.23;83.42;97909.13;4135781;28;20607;-46
2023/10/22 09:34:35;;;;;;;1.92;1.00;;;;;;;14.65;83.76;97918.34;4103273;28;20227;-47